sensor_id;sensor_type;location;lat;lon;timestamp;temperature;humidity
48936;DHT22;34745;52.276;10.528;2022-12-20T00:02:07;8.20;33.30
48936;DHT22;34745;52.276;10.528;2022-12-20T00:04:35;8.40;28.70
48936;DHT22;34745;52.276;10.528;2022-12-20T00:07:02;8.40;17.20
48936;DHT22;34745;52.276;10.528;2022-12-20T00:09:29;8.40;18.60
48936;DHT22;34745;52.276;10.528;2022-12-20T00:11:59;8.40;22.10
48936;DHT22;34745;52.276;10.528;2022-12-20T00:14:26;8.50;13.50
48936;DHT22;34745;52.276;10.528;2022-12-20T00:16:53;8.50;10.50
48936;DHT22;34745;52.276;10.528;2022-12-20T00:19:20;8.30;9.50
48936;DHT22;34745;52.276;10.528;2022-12-20T00:21:47;8.40;19.20
48936;DHT22;34745;52.276;10.528;2022-12-20T00:24:14;8.10;26.00
48936;DHT22;34745;52.276;10.528;2022-12-20T00:26:49;8.10;31.90
48936;DHT22;34745;52.276;10.528;2022-12-20T00:29:18;8.00;41.20
48936;DHT22;34745;52.276;10.528;2022-12-20T00:31:45;8.00;51.60
48936;DHT22;34745;52.276;10.528;2022-12-20T00:34:14;8.20;53.00
48936;DHT22;34745;52.276;10.528;2022-12-20T00:36:41;8.00;65.50
48936;DHT22;34745;52.276;10.528;2022-12-20T00:39:09;7.90;69.40
48936;DHT22;34745;52.276;10.528;2022-12-20T00:41:36;8.00;86.20
48936;DHT22;34745;52.276;10.528;2022-12-20T00:44:04;8.00;85.20
48936;DHT22;34745;52.276;10.528;2022-12-20T00:46:32;7.90;94.30
48936;DHT22;34745;52.276;10.528;2022-12-20T00:49:00;7.90;96.90
48936;DHT22;34745;52.276;10.528;2022-12-20T00:51:28;7.90;97.00
48936;DHT22;34745;52.276;10.528;2022-12-20T00:53:56;7.90;99.90
48936;DHT22;34745;52.276;10.528;2022-12-20T00:56:22;8.10;99.90
48936;DHT22;34745;52.276;10.528;2022-12-20T00:58:52;8.00;99.90
48936;DHT22;34745;52.276;10.528;2022-12-20T01:01:22;8.10;99.50
48936;DHT22;34745;52.276;10.528;2022-12-20T01:03:52;8.10;90.70
48936;DHT22;34745;52.276;10.528;2022-12-20T01:06:20;8.10;91.80
48936;DHT22;34745;52.276;10.528;2022-12-20T01:08:47;8.10;90.60
48936;DHT22;34745;52.276;10.528;2022-12-20T01:11:16;8.10;91.60
48936;DHT22;34745;52.276;10.528;2022-12-20T01:13:47;8.10;86.10
48936;DHT22;34745;52.276;10.528;2022-12-20T01:16:16;8.30;91.10
48936;DHT22;34745;52.276;10.528;2022-12-20T01:18:44;8.10;95.10
48936;DHT22;34745;52.276;10.528;2022-12-20T01:21:13;8.20;85.90
48936;DHT22;34745;52.276;10.528;2022-12-20T01:23:41;8.00;89.40
48936;DHT22;34745;52.276;10.528;2022-12-20T01:26:11;8.20;95.10
48936;DHT22;34745;52.276;10.528;2022-12-20T01:28:41;8.20;85.80
48936;DHT22;34745;52.276;10.528;2022-12-20T01:31:10;8.20;84.30
48936;DHT22;34745;52.276;10.528;2022-12-20T01:33:39;8.20;81.60
48936;DHT22;34745;52.276;10.528;2022-12-20T01:36:07;8.50;87.00
48936;DHT22;34745;52.276;10.528;2022-12-20T01:38:38;8.20;82.60
48936;DHT22;34745;52.276;10.528;2022-12-20T01:41:05;8.20;87.20
48936;DHT22;34745;52.276;10.528;2022-12-20T01:43:48;8.10;93.60
48936;DHT22;34745;52.276;10.528;2022-12-20T01:46:17;8.10;99.90
48936;DHT22;34745;52.276;10.528;2022-12-20T01:48:49;8.10;99.90
48936;DHT22;34745;52.276;10.528;2022-12-20T01:51:18;8.10;99.90
48936;DHT22;34745;52.276;10.528;2022-12-20T01:53:48;8.00;99.90
48936;DHT22;34745;52.276;10.528;2022-12-20T01:56:17;8.20;99.90
48936;DHT22;34745;52.276;10.528;2022-12-20T01:58:46;8.20;99.90
48936;DHT22;34745;52.276;10.528;2022-12-20T02:01:14;8.20;99.90
48936;DHT22;34745;52.276;10.528;2022-12-20T02:03:42;8.20;99.90
48936;DHT22;34745;52.276;10.528;2022-12-20T02:06:18;8.40;99.90
48936;DHT22;34745;52.276;10.528;2022-12-20T02:08:49;8.40;99.90
48936;DHT22;34745;52.276;10.528;2022-12-20T02:11:26;8.40;96.80
48936;DHT22;34745;52.276;10.528;2022-12-20T02:14:01;8.40;97.60
48936;DHT22;34745;52.276;10.528;2022-12-20T02:16:35;8.40;99.90
48936;DHT22;34745;52.276;10.528;2022-12-20T02:19:14;8.40;99.90
48936;DHT22;34745;52.276;10.528;2022-12-20T02:21:49;8.50;99.90
48936;DHT22;34745;52.276;10.528;2022-12-20T02:24:47;8.50;97.00
48936;DHT22;34745;52.276;10.528;2022-12-20T02:27:33;8.60;99.90
48936;DHT22;34745;52.276;10.528;2022-12-20T02:30:23;8.70;86.70
48936;DHT22;34745;52.276;10.528;2022-12-20T02:32:58;8.60;87.60
48936;DHT22;34745;52.276;10.528;2022-12-20T02:35:28;8.70;84.10
48936;DHT22;34745;52.276;10.528;2022-12-20T02:37:58;8.70;86.50
48936;DHT22;34745;52.276;10.528;2022-12-20T02:40:29;8.70;79.00
48936;DHT22;34745;52.276;10.528;2022-12-20T02:42:59;8.80;82.10
48936;DHT22;34745;52.276;10.528;2022-12-20T02:45:30;8.60;86.50
48936;DHT22;34745;52.276;10.528;2022-12-20T02:48:02;8.70;91.50
48936;DHT22;34745;52.276;10.528;2022-12-20T02:50:34;8.70;93.60
48936;DHT22;34745;52.276;10.528;2022-12-20T02:53:03;8.70;93.80
48936;DHT22;34745;52.276;10.528;2022-12-20T02:55:38;8.70;90.20
48936;DHT22;34745;52.276;10.528;2022-12-20T02:58:13;8.70;94.20
48936;DHT22;34745;52.276;10.528;2022-12-20T03:00:45;8.70;96.50
48936;DHT22;34745;52.276;10.528;2022-12-20T03:03:14;8.70;94.80
48936;DHT22;34745;52.276;10.528;2022-12-20T03:05:53;8.80;99.90
48936;DHT22;34745;52.276;10.528;2022-12-20T03:08:22;8.60;99.90
48936;DHT22;34745;52.276;10.528;2022-12-20T03:10:51;8.60;99.90
48936;DHT22;34745;52.276;10.528;2022-12-20T03:13:19;8.60;99.90
48936;DHT22;34745;52.276;10.528;2022-12-20T03:15:48;8.60;99.90
48936;DHT22;34745;52.276;10.528;2022-12-20T03:18:15;8.60;99.90
48936;DHT22;34745;52.276;10.528;2022-12-20T03:20:42;8.60;99.90
48936;DHT22;34745;52.276;10.528;2022-12-20T03:23:09;8.70;99.90
48936;DHT22;34745;52.276;10.528;2022-12-20T03:25:36;8.60;99.90
48936;DHT22;34745;52.276;10.528;2022-12-20T03:28:04;8.60;99.90
48936;DHT22;34745;52.276;10.528;2022-12-20T03:30:31;8.70;99.90
48936;DHT22;34745;52.276;10.528;2022-12-20T03:33:00;8.80;99.90
48936;DHT22;34745;52.276;10.528;2022-12-20T03:35:27;8.80;99.90
48936;DHT22;34745;52.276;10.528;2022-12-20T03:37:54;8.80;99.90
48936;DHT22;34745;52.276;10.528;2022-12-20T03:40:22;8.80;99.90
48936;DHT22;34745;52.276;10.528;2022-12-20T03:42:49;8.80;99.90
48936;DHT22;34745;52.276;10.528;2022-12-20T03:45:16;8.90;99.90
48936;DHT22;34745;52.276;10.528;2022-12-20T03:47:43;8.90;99.90
48936;DHT22;34745;52.276;10.528;2022-12-20T03:50:12;9.00;99.90
48936;DHT22;34745;52.276;10.528;2022-12-20T03:52:39;9.00;99.90
48936;DHT22;34745;52.276;10.528;2022-12-20T03:55:07;8.90;99.90
48936;DHT22;34745;52.276;10.528;2022-12-20T03:57:35;9.00;99.90
48936;DHT22;34745;52.276;10.528;2022-12-20T04:00:03;9.00;97.90
48936;DHT22;34745;52.276;10.528;2022-12-20T04:02:30;9.00;99.90
48936;DHT22;34745;52.276;10.528;2022-12-20T04:04:57;9.10;99.90
48936;DHT22;34745;52.276;10.528;2022-12-20T04:07:26;9.20;90.00
48936;DHT22;34745;52.276;10.528;2022-12-20T04:09:53;9.20;85.40
48936;DHT22;34745;52.276;10.528;2022-12-20T04:12:20;9.20;82.10
48936;DHT22;34745;52.276;10.528;2022-12-20T04:14:47;9.20;76.20
48936;DHT22;34745;52.276;10.528;2022-12-20T04:17:14;9.20;72.80
48936;DHT22;34745;52.276;10.528;2022-12-20T04:19:42;9.30;72.80
48936;DHT22;34745;52.276;10.528;2022-12-20T04:22:09;9.30;63.60
48936;DHT22;34745;52.276;10.528;2022-12-20T04:24:37;9.40;53.90
48936;DHT22;34745;52.276;10.528;2022-12-20T04:27:04;9.40;51.70
48936;DHT22;34745;52.276;10.528;2022-12-20T04:29:31;9.40;47.60
48936;DHT22;34745;52.276;10.528;2022-12-20T04:31:58;9.40;42.50
48936;DHT22;34745;52.276;10.528;2022-12-20T04:34:26;9.40;43.80
48936;DHT22;34745;52.276;10.528;2022-12-20T04:36:53;9.40;40.00
48936;DHT22;34745;52.276;10.528;2022-12-20T04:39:20;9.50;36.20
48936;DHT22;34745;52.276;10.528;2022-12-20T04:41:48;9.60;31.80
48936;DHT22;34745;52.276;10.528;2022-12-20T04:44:15;9.60;27.30
48936;DHT22;34745;52.276;10.528;2022-12-20T04:46:43;9.60;24.50
48936;DHT22;34745;52.276;10.528;2022-12-20T04:49:10;9.70;21.20
48936;DHT22;34745;52.276;10.528;2022-12-20T04:51:37;9.60;24.00
48936;DHT22;34745;52.276;10.528;2022-12-20T04:54:04;9.70;23.50
48936;DHT22;34745;52.276;10.528;2022-12-20T04:56:32;9.70;25.50
48936;DHT22;34745;52.276;10.528;2022-12-20T04:59:00;9.90;20.80
48936;DHT22;34745;52.276;10.528;2022-12-20T05:01:28;9.80;19.80
48936;DHT22;34745;52.276;10.528;2022-12-20T05:03:56;9.80;16.10
48936;DHT22;34745;52.276;10.528;2022-12-20T05:06:23;9.90;11.00
48936;DHT22;34745;52.276;10.528;2022-12-20T05:08:50;10.00;7.90
48936;DHT22;34745;52.276;10.528;2022-12-20T05:11:17;10.00;4.60
48936;DHT22;34745;52.276;10.528;2022-12-20T05:13:44;10.00;2.30
48936;DHT22;34745;52.276;10.528;2022-12-20T05:16:13;10.00;5.20
48936;DHT22;34745;52.276;10.528;2022-12-20T05:18:40;10.00;7.00
48936;DHT22;34745;52.276;10.528;2022-12-20T05:21:15;10.00;6.60
48936;DHT22;34745;52.276;10.528;2022-12-20T05:24:00;10.00;6.10
48936;DHT22;34745;52.276;10.528;2022-12-20T05:26:46;10.10;5.70
48936;DHT22;34745;52.276;10.528;2022-12-20T05:29:13;10.00;7.20
48936;DHT22;34745;52.276;10.528;2022-12-20T05:31:43;10.00;11.90
48936;DHT22;34745;52.276;10.528;2022-12-20T05:34:10;10.00;11.30
48936;DHT22;34745;52.276;10.528;2022-12-20T05:36:37;10.00;12.80
48936;DHT22;34745;52.276;10.528;2022-12-20T05:39:05;10.00;13.10
48936;DHT22;34745;52.276;10.528;2022-12-20T05:41:32;10.00;13.80
48936;DHT22;34745;52.276;10.528;2022-12-20T05:43:59;10.00;13.50
48936;DHT22;34745;52.276;10.528;2022-12-20T05:46:26;10.00;11.80
48936;DHT22;34745;52.276;10.528;2022-12-20T05:48:54;10.00;11.50
48936;DHT22;34745;52.276;10.528;2022-12-20T05:51:22;10.00;13.80
48936;DHT22;34745;52.276;10.528;2022-12-20T05:53:49;10.20;17.40
48936;DHT22;34745;52.276;10.528;2022-12-20T05:56:16;10.00;20.10
48936;DHT22;34745;52.276;10.528;2022-12-20T05:58:43;10.00;28.30
48936;DHT22;34745;52.276;10.528;2022-12-20T06:01:11;10.00;37.10
48936;DHT22;34745;52.276;10.528;2022-12-20T06:03:38;9.90;48.70
48936;DHT22;34745;52.276;10.528;2022-12-20T06:06:08;9.80;55.00
48936;DHT22;34745;52.276;10.528;2022-12-20T06:08:40;10.00;54.50
48936;DHT22;34745;52.276;10.528;2022-12-20T06:11:08;9.90;52.70
48936;DHT22;34745;52.276;10.528;2022-12-20T06:13:38;9.90;52.00
48936;DHT22;34745;52.276;10.528;2022-12-20T06:16:05;9.80;56.50
48936;DHT22;34745;52.276;10.528;2022-12-20T06:18:33;9.80;59.70
48936;DHT22;34745;52.276;10.528;2022-12-20T06:21:00;9.90;50.40
48936;DHT22;34745;52.276;10.528;2022-12-20T06:23:29;9.90;43.90
48936;DHT22;34745;52.276;10.528;2022-12-20T06:25:56;9.90;45.00
48936;DHT22;34745;52.276;10.528;2022-12-20T06:28:23;9.90;44.90
48936;DHT22;34745;52.276;10.528;2022-12-20T06:30:52;9.90;42.60
48936;DHT22;34745;52.276;10.528;2022-12-20T06:33:19;9.90;45.90
48936;DHT22;34745;52.276;10.528;2022-12-20T06:35:48;9.90;45.80
48936;DHT22;34745;52.276;10.528;2022-12-20T06:38:15;9.90;48.30
48936;DHT22;34745;52.276;10.528;2022-12-20T06:40:45;9.80;49.20
48936;DHT22;34745;52.276;10.528;2022-12-20T06:43:27;9.80;46.70
48936;DHT22;34745;52.276;10.528;2022-12-20T06:46:09;9.90;40.90
48936;DHT22;34745;52.276;10.528;2022-12-20T06:48:36;9.90;44.10
48936;DHT22;34745;52.276;10.528;2022-12-20T06:51:04;9.80;47.20
48936;DHT22;34745;52.276;10.528;2022-12-20T06:53:31;9.80;47.50
48936;DHT22;34745;52.276;10.528;2022-12-20T06:56:00;9.80;54.60
48936;DHT22;34745;52.276;10.528;2022-12-20T06:58:27;9.90;51.00
48936;DHT22;34745;52.276;10.528;2022-12-20T07:00:54;9.80;49.90
48936;DHT22;34745;52.276;10.528;2022-12-20T07:03:21;9.90;53.00
48936;DHT22;34745;52.276;10.528;2022-12-20T07:05:50;9.90;54.70
48936;DHT22;34745;52.276;10.528;2022-12-20T07:08:18;9.80;59.20
48936;DHT22;34745;52.276;10.528;2022-12-20T07:10:45;9.80;53.10
48936;DHT22;34745;52.276;10.528;2022-12-20T07:13:14;9.80;62.00
48936;DHT22;34745;52.276;10.528;2022-12-20T07:15:41;9.80;54.80
48936;DHT22;34745;52.276;10.528;2022-12-20T07:18:09;9.70;58.20
48936;DHT22;34745;52.276;10.528;2022-12-20T07:20:36;9.70;63.50
48936;DHT22;34745;52.276;10.528;2022-12-20T07:23:03;9.60;66.90
48936;DHT22;34745;52.276;10.528;2022-12-20T07:25:30;9.60;69.10
48936;DHT22;34745;52.276;10.528;2022-12-20T07:27:58;9.60;67.20
48936;DHT22;34745;52.276;10.528;2022-12-20T07:30:26;9.60;69.00
48936;DHT22;34745;52.276;10.528;2022-12-20T07:32:53;9.60;66.50
48936;DHT22;34745;52.276;10.528;2022-12-20T07:35:20;9.60;64.90
48936;DHT22;34745;52.276;10.528;2022-12-20T07:37:48;9.60;71.00
48936;DHT22;34745;52.276;10.528;2022-12-20T07:40:15;9.60;68.90
48936;DHT22;34745;52.276;10.528;2022-12-20T07:42:42;9.60;72.50
48936;DHT22;34745;52.276;10.528;2022-12-20T07:45:15;9.60;74.60
48936;DHT22;34745;52.276;10.528;2022-12-20T07:47:43;9.60;73.50
48936;DHT22;34745;52.276;10.528;2022-12-20T07:50:10;9.60;69.30
48936;DHT22;34745;52.276;10.528;2022-12-20T07:52:39;9.70;63.40
48936;DHT22;34745;52.276;10.528;2022-12-20T07:55:07;9.70;63.90
48936;DHT22;34745;52.276;10.528;2022-12-20T07:57:38;9.70;66.10
48936;DHT22;34745;52.276;10.528;2022-12-20T08:00:08;9.70;58.60
48936;DHT22;34745;52.276;10.528;2022-12-20T08:02:38;9.80;66.80
48936;DHT22;34745;52.276;10.528;2022-12-20T08:05:09;9.80;58.90
48936;DHT22;34745;52.276;10.528;2022-12-20T08:07:39;9.90;84.40
48936;DHT22;34745;52.276;10.528;2022-12-20T08:10:09;10.10;76.50
48936;DHT22;34745;52.276;10.528;2022-12-20T08:12:38;10.10;60.50
48936;DHT22;34745;52.276;10.528;2022-12-20T08:15:07;10.20;52.60
48936;DHT22;34745;52.276;10.528;2022-12-20T08:17:34;10.00;57.30
48936;DHT22;34745;52.276;10.528;2022-12-20T08:20:02;9.90;78.60
48936;DHT22;34745;52.276;10.528;2022-12-20T08:22:33;9.80;94.30
48936;DHT22;34745;52.276;10.528;2022-12-20T08:25:00;9.80;99.90
48936;DHT22;34745;52.276;10.528;2022-12-20T08:27:27;9.70;99.90
48936;DHT22;34745;52.276;10.528;2022-12-20T08:29:54;9.70;99.90
48936;DHT22;34745;52.276;10.528;2022-12-20T08:32:21;9.80;99.90
48936;DHT22;34745;52.276;10.528;2022-12-20T08:34:48;9.80;99.90
48936;DHT22;34745;52.276;10.528;2022-12-20T08:37:15;9.70;99.90
48936;DHT22;34745;52.276;10.528;2022-12-20T08:39:43;9.70;99.90
48936;DHT22;34745;52.276;10.528;2022-12-20T08:42:11;9.80;94.60
48936;DHT22;34745;52.276;10.528;2022-12-20T08:44:38;9.90;64.40
48936;DHT22;34745;52.276;10.528;2022-12-20T08:47:05;10.00;55.20
48936;DHT22;34745;52.276;10.528;2022-12-20T08:49:32;10.00;50.00
48936;DHT22;34745;52.276;10.528;2022-12-20T08:51:59;10.00;47.30
48936;DHT22;34745;52.276;10.528;2022-12-20T08:54:26;10.00;52.90
48936;DHT22;34745;52.276;10.528;2022-12-20T08:56:55;9.90;61.60
48936;DHT22;34745;52.276;10.528;2022-12-20T08:59:22;10.00;53.50
48936;DHT22;34745;52.276;10.528;2022-12-20T09:01:49;10.00;56.80
48936;DHT22;34745;52.276;10.528;2022-12-20T09:04:16;10.00;55.00
48936;DHT22;34745;52.276;10.528;2022-12-20T09:06:43;10.00;56.70
48936;DHT22;34745;52.276;10.528;2022-12-20T09:09:11;10.00;50.60
48936;DHT22;34745;52.276;10.528;2022-12-20T09:11:38;10.10;36.00
48936;DHT22;34745;52.276;10.528;2022-12-20T09:14:07;10.20;28.20
48936;DHT22;34745;52.276;10.528;2022-12-20T09:16:34;10.20;21.90
48936;DHT22;34745;52.276;10.528;2022-12-20T09:19:03;10.30;9.10
48936;DHT22;34745;52.276;10.528;2022-12-20T09:21:32;10.30;10.60
48936;DHT22;34745;52.276;10.528;2022-12-20T09:24:00;10.50;6.10
48936;DHT22;34745;52.276;10.528;2022-12-20T09:26:27;10.40;4.50
48936;DHT22;34745;52.276;10.528;2022-12-20T09:28:54;10.50;1.70
48936;DHT22;34745;52.276;10.528;2022-12-20T09:31:24;10.40;1.00
48936;DHT22;34745;52.276;10.528;2022-12-20T09:33:53;10.40;1.00
48936;DHT22;34745;52.276;10.528;2022-12-20T09:36:22;10.50;1.00
48936;DHT22;34745;52.276;10.528;2022-12-20T09:38:50;10.60;1.00
48936;DHT22;34745;52.276;10.528;2022-12-20T09:41:26;10.60;1.00
48936;DHT22;34745;52.276;10.528;2022-12-20T09:43:56;10.60;1.00
48936;DHT22;34745;52.276;10.528;2022-12-20T09:46:25;10.60;1.00
48936;DHT22;34745;52.276;10.528;2022-12-20T09:48:53;10.80;1.00
48936;DHT22;34745;52.276;10.528;2022-12-20T09:51:48;10.80;1.00
48936;DHT22;34745;52.276;10.528;2022-12-20T09:54:26;10.90;1.00
48936;DHT22;34745;52.276;10.528;2022-12-20T09:57:00;10.90;1.00
48936;DHT22;34745;52.276;10.528;2022-12-20T09:59:29;10.80;1.00
48936;DHT22;34745;52.276;10.528;2022-12-20T10:02:10;10.80;1.00
48936;DHT22;34745;52.276;10.528;2022-12-20T10:04:57;10.90;1.00
48936;DHT22;34745;52.276;10.528;2022-12-20T10:07:34;10.90;1.00
48936;DHT22;34745;52.276;10.528;2022-12-20T10:10:30;10.90;1.00
48936;DHT22;34745;52.276;10.528;2022-12-20T10:13:06;10.90;1.00
48936;DHT22;34745;52.276;10.528;2022-12-20T10:15:39;10.90;1.00
48936;DHT22;34745;52.276;10.528;2022-12-20T10:18:20;11.10;1.00
48936;DHT22;34745;52.276;10.528;2022-12-20T10:20:56;10.90;1.00
48936;DHT22;34745;52.276;10.528;2022-12-20T10:23:29;11.00;1.00
48936;DHT22;34745;52.276;10.528;2022-12-20T10:26:00;11.00;1.00
48936;DHT22;34745;52.276;10.528;2022-12-20T10:28:29;11.10;1.00
48936;DHT22;34745;52.276;10.528;2022-12-20T10:30:59;11.10;1.00
48936;DHT22;34745;52.276;10.528;2022-12-20T10:33:30;11.10;1.00
48936;DHT22;34745;52.276;10.528;2022-12-20T10:36:19;11.20;1.00
48936;DHT22;34745;52.276;10.528;2022-12-20T10:38:50;11.20;1.00
48936;DHT22;34745;52.276;10.528;2022-12-20T10:41:19;11.20;1.00
48936;DHT22;34745;52.276;10.528;2022-12-20T10:43:53;11.30;1.00
48936;DHT22;34745;52.276;10.528;2022-12-20T10:46:22;11.40;1.00
48936;DHT22;34745;52.276;10.528;2022-12-20T10:49:20;11.30;1.00
48936;DHT22;34745;52.276;10.528;2022-12-20T10:51:51;11.30;1.00
48936;DHT22;34745;52.276;10.528;2022-12-20T10:54:22;11.30;1.00
48936;DHT22;34745;52.276;10.528;2022-12-20T10:56:55;11.30;1.00
48936;DHT22;34745;52.276;10.528;2022-12-20T10:59:29;11.30;1.00
48936;DHT22;34745;52.276;10.528;2022-12-20T11:01:58;11.40;1.00
48936;DHT22;34745;52.276;10.528;2022-12-20T11:04:30;11.40;1.00
48936;DHT22;34745;52.276;10.528;2022-12-20T11:07:00;11.50;1.00
48936;DHT22;34745;52.276;10.528;2022-12-20T11:09:30;11.70;1.00
48936;DHT22;34745;52.276;10.528;2022-12-20T11:12:04;11.70;1.00
48936;DHT22;34745;52.276;10.528;2022-12-20T11:14:33;11.80;1.00
48936;DHT22;34745;52.276;10.528;2022-12-20T11:17:18;11.90;1.00
48936;DHT22;34745;52.276;10.528;2022-12-20T11:20:15;11.80;1.00
48936;DHT22;34745;52.276;10.528;2022-12-20T11:22:55;11.80;1.00
48936;DHT22;34745;52.276;10.528;2022-12-20T11:25:38;11.80;1.00
48936;DHT22;34745;52.276;10.528;2022-12-20T11:28:20;11.80;1.00
48936;DHT22;34745;52.276;10.528;2022-12-20T11:30:57;11.90;1.00
48936;DHT22;34745;52.276;10.528;2022-12-20T11:33:51;11.90;1.00
48936;DHT22;34745;52.276;10.528;2022-12-20T11:36:36;11.90;1.00
48936;DHT22;34745;52.276;10.528;2022-12-20T11:39:17;12.10;1.00
48936;DHT22;34745;52.276;10.528;2022-12-20T11:41:56;12.00;1.00
48936;DHT22;34745;52.276;10.528;2022-12-20T11:44:32;11.90;1.00
48936;DHT22;34745;52.276;10.528;2022-12-20T11:47:36;11.90;1.00
48936;DHT22;34745;52.276;10.528;2022-12-20T11:50:37;11.90;1.00
48936;DHT22;34745;52.276;10.528;2022-12-20T11:53:15;11.90;1.00
48936;DHT22;34745;52.276;10.528;2022-12-20T11:55:46;12.00;1.00
48936;DHT22;34745;52.276;10.528;2022-12-20T11:58:19;12.00;1.00
48936;DHT22;34745;52.276;10.528;2022-12-20T12:00:55;12.00;1.00
48936;DHT22;34745;52.276;10.528;2022-12-20T12:03:27;11.90;1.00
48936;DHT22;34745;52.276;10.528;2022-12-20T12:05:59;11.90;1.00
48936;DHT22;34745;52.276;10.528;2022-12-20T12:08:37;11.80;1.00
48936;DHT22;34745;52.276;10.528;2022-12-20T12:11:13;11.80;1.00
48936;DHT22;34745;52.276;10.528;2022-12-20T12:14:02;11.90;1.00
48936;DHT22;34745;52.276;10.528;2022-12-20T12:16:35;11.90;1.00
48936;DHT22;34745;52.276;10.528;2022-12-20T12:19:07;11.90;1.00
48936;DHT22;34745;52.276;10.528;2022-12-20T12:21:38;11.90;1.00
48936;DHT22;34745;52.276;10.528;2022-12-20T12:24:16;11.90;1.00
48936;DHT22;34745;52.276;10.528;2022-12-20T12:26:46;11.90;1.00
48936;DHT22;34745;52.276;10.528;2022-12-20T12:29:15;11.90;1.00
48936;DHT22;34745;52.276;10.528;2022-12-20T12:31:45;11.80;1.00
48936;DHT22;34745;52.276;10.528;2022-12-20T12:34:27;11.80;1.00
48936;DHT22;34745;52.276;10.528;2022-12-20T12:40:15;11.80;1.00
48936;DHT22;34745;52.276;10.528;2022-12-20T12:45:56;11.70;1.00
48936;DHT22;34745;52.276;10.528;2022-12-20T12:48:35;11.70;1.00
48936;DHT22;34745;52.276;10.528;2022-12-20T12:51:05;11.70;1.00
48936;DHT22;34745;52.276;10.528;2022-12-20T12:53:35;11.70;1.00
48936;DHT22;34745;52.276;10.528;2022-12-20T12:56:36;11.80;1.00
48936;DHT22;34745;52.276;10.528;2022-12-20T12:59:39;11.70;1.00
48936;DHT22;34745;52.276;10.528;2022-12-20T13:02:25;11.80;1.00
48936;DHT22;34745;52.276;10.528;2022-12-20T13:04:56;11.70;1.00
48936;DHT22;34745;52.276;10.528;2022-12-20T13:07:26;11.80;1.00
48936;DHT22;34745;52.276;10.528;2022-12-20T13:09:54;11.80;1.00
48936;DHT22;34745;52.276;10.528;2022-12-20T13:12:56;11.70;1.00
48936;DHT22;34745;52.276;10.528;2022-12-20T13:15:47;11.80;1.00
48936;DHT22;34745;52.276;10.528;2022-12-20T13:18:25;11.80;1.00
48936;DHT22;34745;52.276;10.528;2022-12-20T13:21:27;11.80;1.00
48936;DHT22;34745;52.276;10.528;2022-12-20T13:27:13;11.80;1.00
48936;DHT22;34745;52.276;10.528;2022-12-20T13:29:54;11.70;1.00
48936;DHT22;34745;52.276;10.528;2022-12-20T13:32:53;11.70;1.00
48936;DHT22;34745;52.276;10.528;2022-12-20T13:35:29;11.80;1.00
48936;DHT22;34745;52.276;10.528;2022-12-20T13:37:58;11.80;1.00
48936;DHT22;34745;52.276;10.528;2022-12-20T13:40:35;11.80;1.00
48936;DHT22;34745;52.276;10.528;2022-12-20T13:43:06;11.70;1.00
48936;DHT22;34745;52.276;10.528;2022-12-20T13:45:38;11.80;1.00
48936;DHT22;34745;52.276;10.528;2022-12-20T13:48:14;11.70;1.00
48936;DHT22;34745;52.276;10.528;2022-12-20T13:50:48;11.80;1.00
48936;DHT22;34745;52.276;10.528;2022-12-20T13:53:18;11.80;1.00
48936;DHT22;34745;52.276;10.528;2022-12-20T13:55:46;11.80;1.00
48936;DHT22;34745;52.276;10.528;2022-12-20T13:58:17;11.80;1.00
48936;DHT22;34745;52.276;10.528;2022-12-20T14:00:47;11.80;1.00
48936;DHT22;34745;52.276;10.528;2022-12-20T14:03:22;11.80;1.00
48936;DHT22;34745;52.276;10.528;2022-12-20T14:05:56;11.80;1.00
48936;DHT22;34745;52.276;10.528;2022-12-20T14:08:26;11.80;1.00
48936;DHT22;34745;52.276;10.528;2022-12-20T14:10:55;11.80;1.00
48936;DHT22;34745;52.276;10.528;2022-12-20T14:13:32;11.80;1.00
48936;DHT22;34745;52.276;10.528;2022-12-20T14:16:11;11.90;1.00
48936;DHT22;34745;52.276;10.528;2022-12-20T14:18:40;11.90;1.00
48936;DHT22;34745;52.276;10.528;2022-12-20T14:21:08;11.90;1.00
48936;DHT22;34745;52.276;10.528;2022-12-20T14:23:38;11.90;1.00
48936;DHT22;34745;52.276;10.528;2022-12-20T14:26:10;11.80;1.00
48936;DHT22;34745;52.276;10.528;2022-12-20T14:28:39;11.90;1.00
48936;DHT22;34745;52.276;10.528;2022-12-20T14:31:22;11.90;1.00
48936;DHT22;34745;52.276;10.528;2022-12-20T14:33:50;11.90;1.00
48936;DHT22;34745;52.276;10.528;2022-12-20T14:36:26;11.80;1.00
48936;DHT22;34745;52.276;10.528;2022-12-20T14:38:53;11.70;1.00
48936;DHT22;34745;52.276;10.528;2022-12-20T14:41:32;11.70;1.00
48936;DHT22;34745;52.276;10.528;2022-12-20T14:44:03;11.80;1.00
48936;DHT22;34745;52.276;10.528;2022-12-20T14:46:32;11.70;1.00
48936;DHT22;34745;52.276;10.528;2022-12-20T14:49:14;11.70;1.00
48936;DHT22;34745;52.276;10.528;2022-12-20T14:51:42;11.70;1.00
48936;DHT22;34745;52.276;10.528;2022-12-20T14:54:16;11.60;1.00
48936;DHT22;34745;52.276;10.528;2022-12-20T14:57:10;11.70;1.00
48936;DHT22;34745;52.276;10.528;2022-12-20T14:59:37;11.70;1.00
48936;DHT22;34745;52.276;10.528;2022-12-20T15:02:29;11.60;1.00
48936;DHT22;34745;52.276;10.528;2022-12-20T15:04:59;11.60;1.00
48936;DHT22;34745;52.276;10.528;2022-12-20T15:07:28;11.60;1.00
48936;DHT22;34745;52.276;10.528;2022-12-20T15:09:57;11.50;1.00
48936;DHT22;34745;52.276;10.528;2022-12-20T15:12:24;11.50;1.00
48936;DHT22;34745;52.276;10.528;2022-12-20T15:14:52;11.50;1.00
48936;DHT22;34745;52.276;10.528;2022-12-20T15:17:19;11.50;1.00
48936;DHT22;34745;52.276;10.528;2022-12-20T15:19:48;11.40;1.00
48936;DHT22;34745;52.276;10.528;2022-12-20T15:22:17;11.50;1.00
48936;DHT22;34745;52.276;10.528;2022-12-20T15:24:45;11.50;1.00
48936;DHT22;34745;52.276;10.528;2022-12-20T15:27:13;11.50;1.00
48936;DHT22;34745;52.276;10.528;2022-12-20T15:29:41;11.30;1.00
48936;DHT22;34745;52.276;10.528;2022-12-20T15:32:15;11.30;1.00
48936;DHT22;34745;52.276;10.528;2022-12-20T15:34:43;11.30;1.00
48936;DHT22;34745;52.276;10.528;2022-12-20T15:37:14;11.30;1.00
48936;DHT22;34745;52.276;10.528;2022-12-20T15:39:44;11.30;1.00
48936;DHT22;34745;52.276;10.528;2022-12-20T15:42:15;11.30;1.00
48936;DHT22;34745;52.276;10.528;2022-12-20T15:44:43;11.30;1.00
48936;DHT22;34745;52.276;10.528;2022-12-20T15:47:11;11.30;1.00
48936;DHT22;34745;52.276;10.528;2022-12-20T15:49:39;11.20;1.00
48936;DHT22;34745;52.276;10.528;2022-12-20T15:52:18;11.20;1.00
48936;DHT22;34745;52.276;10.528;2022-12-20T15:54:45;11.20;1.00
48936;DHT22;34745;52.276;10.528;2022-12-20T15:57:13;11.20;1.00
48936;DHT22;34745;52.276;10.528;2022-12-20T15:59:40;11.20;1.00
48936;DHT22;34745;52.276;10.528;2022-12-20T16:02:28;11.20;1.00
48936;DHT22;34745;52.276;10.528;2022-12-20T16:04:55;11.10;1.00
48936;DHT22;34745;52.276;10.528;2022-12-20T16:07:25;11.10;1.00